Time;durP1;ratioP1;P1;durP2;ratioP2;P2;SDS_P1;SDS_P2;PMS_P1;PMS_P2;Temp;Humidity;BMP_temperature;BMP_pressure;BME280_temperature;BME280_humidity;BME280_pressure;Samples;Min_cycle;Max_cycle;Signal;HPM_P1;HPM_P2
2022/09/20 00:01:14;;;;;;;12.00;9.97;;;10.60;99.90;;;;;;5052893;28;20202;-72
2022/09/20 00:03:42;;;;;;;12.67;10.07;;;10.60;99.90;;;;;;5051741;28;20651;-73
2022/09/20 00:06:13;;;;;;;12.77;9.43;;;10.60;99.90;;;;;;5053509;28;20667;-73
2022/09/20 00:08:40;;;;;;;12.53;10.17;;;10.60;99.90;;;;;;5052466;28;20213;-74
2022/09/20 00:11:09;;;;;;;13.07;10.87;;;10.60;99.90;;;;;;5068497;28;20217;-73
2022/09/20 00:13:37;;;;;;;14.90;10.23;;;10.70;99.90;;;;;;5056774;28;20205;-74
2022/09/20 00:16:05;;;;;;;11.60;10.30;;;10.60;99.90;;;;;;5062062;28;20213;-74
2022/09/20 00:18:32;;;;;;;14.17;10.53;;;10.60;99.90;;;;;;5047254;28;20217;-74
2022/09/20 00:20:59;;;;;;;12.47;9.73;;;10.50;99.90;;;;;;5042073;28;20837;-73
2022/09/20 00:23:28;;;;;;;14.30;9.93;;;10.50;99.90;;;;;;5050748;28;20589;-73
2022/09/20 00:25:56;;;;;;;15.50;10.17;;;10.50;99.90;;;;;;5054818;28;20210;-74
2022/09/20 00:28:23;;;;;;;12.33;9.67;;;10.40;99.90;;;;;;5053173;28;20209;-74
2022/09/20 00:30:51;;;;;;;11.43;9.63;;;10.50;99.90;;;;;;5054018;28;20212;-73
2022/09/20 00:33:18;;;;;;;11.60;9.80;;;10.40;99.90;;;;;;5052363;28;20256;-73
2022/09/20 00:35:45;;;;;;;13.50;10.50;;;10.40;99.90;;;;;;5067405;28;20210;-73
2022/09/20 00:38:13;;;;;;;12.93;9.87;;;10.40;99.90;;;;;;5052864;28;20208;-74
2022/09/20 00:40:41;;;;;;;12.53;9.93;;;10.40;99.90;;;;;;5055805;28;20234;-74
2022/09/20 00:43:13;;;;;;;13.67;9.93;;;10.40;99.90;;;;;;5068352;28;20213;-73
2022/09/20 00:45:41;;;;;;;13.37;10.20;;;10.30;99.90;;;;;;5054116;28;20237;-74
2022/09/20 00:48:15;;;;;;;12.50;9.37;;;10.30;99.90;;;;;;5059205;28;20228;-73
2022/09/20 00:50:45;;;;;;;12.70;10.63;;;10.30;99.90;;;;;;5049491;28;20208;-74
2022/09/20 00:53:18;;;;;;;12.67;10.03;;;10.30;99.90;;;;;;5052352;28;20213;-74
2022/09/20 00:55:48;;;;;;;14.30;9.63;;;10.30;99.90;;;;;;5049113;28;20285;-74
2022/09/20 00:58:16;;;;;;;15.97;11.00;;;10.30;99.90;;;;;;5051549;28;20229;-73
2022/09/20 01:00:45;;;;;;;14.13;10.30;;;10.20;99.90;;;;;;5053573;28;20209;-74
2022/09/20 01:03:14;;;;;;;13.90;11.07;;;10.30;99.90;;;;;;5051813;28;20214;-74
2022/09/20 01:05:44;;;;;;;11.37;9.60;;;10.30;99.90;;;;;;5051596;28;20229;-74
2022/09/20 01:08:11;;;;;;;11.93;10.33;;;10.30;99.90;;;;;;5053149;28;20210;-74
2022/09/20 01:10:38;;;;;;;13.17;10.17;;;10.20;99.90;;;;;;5053676;28;20213;-74
2022/09/20 01:13:07;;;;;;;12.03;9.53;;;10.20;99.90;;;;;;5053110;28;20198;-74
2022/09/20 01:15:36;;;;;;;13.00;9.97;;;10.20;99.90;;;;;;5057670;28;20202;-74
2022/09/20 01:18:05;;;;;;;12.57;9.57;;;10.20;99.90;;;;;;5045736;28;20666;-73
2022/09/20 01:20:35;;;;;;;13.47;10.27;;;10.20;99.90;;;;;;5066902;28;20201;-74
2022/09/20 01:23:24;;;;;;;11.73;9.97;;;10.30;99.90;;;;;;5040596;28;20223;-74
2022/09/20 01:26:18;;;;;;;14.37;10.10;;;10.20;99.90;;;;;;5042163;28;20246;-73
2022/09/20 01:28:48;;;;;;;14.83;10.10;;;10.10;99.90;;;;;;5038548;28;20214;-73
2022/09/20 01:31:20;;;;;;;10.93;8.87;;;10.10;99.90;;;;;;5046049;28;20216;-73
2022/09/20 01:33:50;;;;;;;14.27;10.20;;;10.10;99.90;;;;;;5050593;28;20593;-73
2022/09/20 01:36:23;;;;;;;15.07;10.50;;;10.10;99.90;;;;;;5064588;28;20238;-73
2022/09/20 01:39:01;;;;;;;12.77;10.60;;;10.10;99.90;;;;;;5052078;28;20205;-72
2022/09/20 01:41:33;;;;;;;13.00;9.73;;;10.00;99.90;;;;;;5051419;28;20218;-73
2022/09/20 01:44:09;;;;;;;11.80;9.77;;;10.00;99.90;;;;;;5052079;28;20234;-73
2022/09/20 01:46:37;;;;;;;10.90;9.80;;;10.00;99.90;;;;;;5053345;28;20605;-73
2022/09/20 01:49:16;;;;;;;15.43;10.30;;;10.00;99.90;;;;;;5052612;28;20213;-73
2022/09/20 01:52:26;;;;;;;13.90;10.10;;;10.00;99.90;;;;;;5052139;28;20212;-73
2022/09/20 01:55:31;;;;;;;12.43;9.10;;;10.00;99.90;;;;;;5053047;28;20202;-73
2022/09/20 01:58:26;;;;;;;12.87;10.10;;;10.00;99.90;;;;;;5055244;28;20215;-73
2022/09/20 02:01:20;;;;;;;12.87;9.37;;;10.00;99.90;;;;;;5058401;28;20663;-73
2022/09/20 02:04:14;;;;;;;11.77;9.90;;;9.90;99.90;;;;;;5062433;28;20678;-73
2022/09/20 02:07:00;;;;;;;10.73;8.97;;;10.00;99.90;;;;;;5038791;28;20715;-72
2022/09/20 02:09:57;;;;;;;12.73;9.80;;;9.90;99.90;;;;;;5052413;28;20212;-73
2022/09/20 02:12:52;;;;;;;13.40;10.07;;;9.90;99.90;;;;;;5059650;28;20211;-73
2022/09/20 02:15:41;;;;;;;13.37;10.33;;;9.90;99.90;;;;;;5049353;28;20247;-74
2022/09/20 02:18:27;;;;;;;14.87;10.73;;;9.90;99.90;;;;;;5048582;28;20671;-73
2022/09/20 02:21:00;;;;;;;14.37;10.47;;;9.90;99.90;;;;;;5039103;28;20208;-73
2022/09/20 02:23:40;;;;;;;12.20;10.23;;;9.80;99.90;;;;;;5050426;28;20229;-73
2022/09/20 02:26:21;;;;;;;13.53;9.83;;;9.80;99.90;;;;;;5051275;28;20224;-74
2022/09/20 02:28:55;;;;;;;13.47;10.33;;;9.90;99.90;;;;;;5050895;28;20210;-74
2022/09/20 02:31:44;;;;;;;14.60;10.63;;;9.90;99.90;;;;;;5050414;28;20210;-74
2022/09/20 02:34:38;;;;;;;14.60;10.40;;;9.90;99.90;;;;;;5055115;28;20202;-73
2022/09/20 02:37:34;;;;;;;15.33;10.10;;;9.90;99.90;;;;;;5050595;28;20241;-74
2022/09/20 02:40:15;;;;;;;12.27;10.27;;;9.90;99.90;;;;;;5041835;28;20212;-73
2022/09/20 02:42:48;;;;;;;15.37;9.90;;;9.80;99.90;;;;;;5051003;28;20209;-73
2022/09/20 02:45:24;;;;;;;15.30;10.20;;;9.80;99.90;;;;;;5048626;28;20226;-74
2022/09/20 02:47:53;;;;;;;13.03;9.97;;;9.80;99.90;;;;;;5054295;28;20202;-74
2022/09/20 02:50:33;;;;;;;14.97;10.10;;;9.80;99.90;;;;;;5049749;28;20218;-72
2022/09/20 02:53:13;;;;;;;12.40;9.60;;;9.80;99.90;;;;;;5049996;28;20210;-73
2022/09/20 02:55:46;;;;;;;13.13;9.43;;;9.80;99.90;;;;;;5050180;28;20208;-73
2022/09/20 02:58:28;;;;;;;13.77;10.03;;;9.80;99.90;;;;;;5036503;28;20210;-73
2022/09/20 03:01:04;;;;;;;15.23;9.80;;;9.80;99.90;;;;;;5050346;28;20201;-73
2022/09/20 03:03:45;;;;;;;13.13;10.10;;;9.90;99.90;;;;;;5048622;28;20202;-73
2022/09/20 03:06:23;;;;;;;14.67;10.47;;;9.80;99.90;;;;;;5055183;28;20217;-73
2022/09/20 03:08:58;;;;;;;16.27;10.53;;;9.80;99.90;;;;;;5064046;28;20204;-73
2022/09/20 03:11:31;;;;;;;14.43;10.80;;;9.90;99.90;;;;;;5057484;28;20213;-73
2022/09/20 03:14:11;;;;;;;13.53;10.67;;;9.80;99.90;;;;;;5056342;28;20216;-73
2022/09/20 03:16:48;;;;;;;14.07;10.37;;;9.80;99.90;;;;;;5049433;28;20206;-73
2022/09/20 03:19:23;;;;;;;12.90;9.40;;;9.80;99.90;;;;;;5052766;28;20209;-73
2022/09/20 03:22:01;;;;;;;12.77;10.33;;;9.80;99.90;;;;;;5053910;28;20225;-73
2022/09/20 03:24:41;;;;;;;14.73;9.97;;;9.80;99.90;;;;;;5054900;28;20228;-73
2022/09/20 03:27:19;;;;;;;14.03;10.77;;;9.80;99.90;;;;;;5055710;28;20292;-73
2022/09/20 03:29:58;;;;;;;12.77;10.50;;;9.90;99.90;;;;;;5057073;28;20201;-74
2022/09/20 03:32:39;;;;;;;14.43;10.33;;;9.90;99.90;;;;;;5042513;28;20212;-74
2022/09/20 03:35:18;;;;;;;12.83;10.40;;;9.90;99.90;;;;;;5050008;28;20194;-73
2022/09/20 03:38:00;;;;;;;11.23;9.80;;;9.90;99.90;;;;;;5036833;28;20240;-74
2022/09/20 03:40:50;;;;;;;11.40;8.93;;;9.90;99.90;;;;;;5047052;28;20213;-73
2022/09/20 03:43:27;;;;;;;15.17;9.13;;;9.90;99.90;;;;;;5061038;28;20718;-74
2022/09/20 03:46:03;;;;;;;13.73;9.17;;;9.90;99.90;;;;;;5056071;28;20271;-74
2022/09/20 03:48:48;;;;;;;11.17;9.07;;;9.90;99.90;;;;;;5058377;28;20237;-73
2022/09/20 03:51:23;;;;;;;10.60;9.00;;;9.90;99.90;;;;;;5053900;28;20206;-72
2022/09/20 03:54:10;;;;;;;13.60;8.83;;;9.90;99.90;;;;;;5044068;28;20739;-73
2022/09/20 03:56:59;;;;;;;8.17;7.37;;;9.90;99.90;;;;;;5041209;28;20205;-74
2022/09/20 03:59:42;;;;;;;10.77;8.40;;;9.90;99.90;;;;;;5054081;28;20206;-73
2022/09/20 04:02:24;;;;;;;10.63;7.70;;;9.90;99.90;;;;;;5053285;28;20675;-73
2022/09/20 04:04:54;;;;;;;13.20;8.07;;;9.90;99.90;;;;;;5067458;28;20249;-73
2022/09/20 04:07:31;;;;;;;12.27;8.13;;;9.90;99.90;;;;;;5051499;28;20336;-73
2022/09/20 04:10:13;;;;;;;9.43;7.97;;;9.90;99.90;;;;;;5053209;28;20325;-74
2022/09/20 04:12:49;;;;;;;9.57;7.73;;;9.90;99.90;;;;;;5053534;28;20247;-74
2022/09/20 04:15:27;;;;;;;12.43;7.67;;;9.90;99.90;;;;;;5051044;28;20202;-73
2022/09/20 04:18:00;;;;;;;8.33;7.50;;;9.90;99.90;;;;;;5047641;28;20194;-73
2022/09/20 04:20:36;;;;;;;10.37;7.73;;;9.90;99.90;;;;;;5053771;28;20209;-73
2022/09/20 04:23:12;;;;;;;9.63;7.53;;;9.90;99.90;;;;;;5051539;28;20286;-72
2022/09/20 04:25:46;;;;;;;12.93;10.53;;;9.90;99.90;;;;;;5053691;28;20520;-73
2022/09/20 04:28:19;;;;;;;8.97;7.77;;;10.00;99.90;;;;;;5052918;28;20205;-74
2022/09/20 04:30:47;;;;;;;8.83;7.93;;;10.00;99.90;;;;;;5053928;28;20635;-73
2022/09/20 04:33:20;;;;;;;9.53;7.57;;;10.00;99.90;;;;;;5048607;28;20213;-73
2022/09/20 04:38:40;;;;;;;9.00;7.70;;;10.00;99.90;;;;;;5051663;28;20202;-72
2022/09/20 04:41:33;;;;;;;9.07;7.40;;;10.00;99.90;;;;;;5052072;28;20216;-73
2022/09/20 04:44:26;;;;;;;8.43;7.13;;;10.00;99.90;;;;;;5047850;28;20238;-73
2022/09/20 04:47:25;;;;;;;7.90;7.07;;;10.00;99.90;;;;;;5049903;28;20287;-74
2022/09/20 04:50:22;;;;;;;9.47;7.47;;;10.00;99.90;;;;;;5040676;28;20205;-73
2022/09/20 04:53:21;;;;;;;8.57;7.00;;;10.00;99.90;;;;;;5056704;28;20634;-73
2022/09/20 04:55:55;;;;;;;8.57;6.70;;;10.00;99.90;;;;;;5054245;28;20195;-72
2022/09/20 04:58:56;;;;;;;7.87;7.07;;;10.00;99.90;;;;;;5050871;28;20690;-71
2022/09/20 05:02:12;;;;;;;11.33;7.30;;;10.10;99.90;;;;;;5047696;28;20205;-71
2022/09/20 05:05:20;;;;;;;7.23;6.53;;;10.10;99.90;;;;;;5044421;28;20174;-75
2022/09/20 05:08:39;;;;;;;8.90;7.13;;;10.10;99.90;;;;;;5046924;28;20202;-74
2022/09/20 05:11:42;;;;;;;8.03;6.50;;;10.10;99.90;;;;;;5005771;28;20549;-74
2022/09/20 05:14:40;;;;;;;11.90;6.10;;;10.20;99.90;;;;;;5039990;28;20209;-73
2022/09/20 05:17:30;;;;;;;6.30;5.70;;;10.20;99.90;;;;;;5034780;28;20652;-68
2022/09/20 05:20:42;;;;;;;7.50;5.67;;;10.20;99.90;;;;;;5049092;28;20403;-68
2022/09/20 05:23:29;;;;;;;6.70;6.00;;;10.20;99.90;;;;;;5040163;28;20740;-68
2022/09/20 05:26:08;;;;;;;7.87;6.13;;;10.20;99.90;;;;;;5038263;28;20577;-68
2022/09/20 05:28:44;;;;;;;8.30;5.93;;;10.20;99.90;;;;;;5048247;28;20209;-67
2022/09/20 05:31:18;;;;;;;6.90;6.17;;;10.20;99.90;;;;;;5044107;28;20210;-68
2022/09/20 05:33:53;;;;;;;6.90;6.20;;;10.20;99.90;;;;;;5050605;28;20210;-68
2022/09/20 05:36:29;;;;;;;7.77;6.47;;;10.20;99.90;;;;;;5037574;28;20240;-67
2022/09/20 05:39:03;;;;;;;6.63;5.57;;;10.30;99.90;;;;;;5051973;28;20201;-70
2022/09/20 05:41:41;;;;;;;6.60;5.87;;;10.30;99.90;;;;;;5050859;28;20202;-70
2022/09/20 05:44:18;;;;;;;6.20;5.60;;;10.30;99.90;;;;;;5033320;28;20547;-70
2022/09/20 05:46:55;;;;;;;7.23;6.07;;;10.40;99.90;;;;;;5051672;28;20221;-69
2022/09/20 05:49:40;;;;;;;7.23;6.37;;;10.40;99.90;;;;;;5043009;28;20206;-70
2022/09/20 05:52:24;;;;;;;8.13;5.73;;;10.40;99.90;;;;;;5043433;28;20213;-69
2022/09/20 05:55:18;;;;;;;6.87;5.80;;;10.50;99.90;;;;;;5060342;28;20677;-68
2022/09/20 05:58:00;;;;;;;8.10;5.93;;;10.50;99.90;;;;;;5050380;28;20293;-69
2022/09/20 06:00:33;;;;;;;8.53;6.47;;;10.50;99.90;;;;;;5043618;28;20210;-70
2022/09/20 06:03:10;;;;;;;8.00;6.23;;;10.50;99.90;;;;;;5047791;28;20210;-67
2022/09/20 06:05:49;;;;;;;6.60;5.90;;;10.50;99.90;;;;;;5045864;28;20213;-69
2022/09/20 06:08:38;;;;;;;7.40;6.30;;;10.50;99.90;;;;;;5059489;28;20205;-69
2022/09/20 06:11:20;;;;;;;8.77;6.50;;;10.60;99.90;;;;;;5056298;28;20776;-69
2022/09/20 06:14:00;;;;;;;8.13;6.40;;;10.60;99.90;;;;;;5053006;28;20208;-69
2022/09/20 06:16:35;;;;;;;7.07;6.30;;;10.60;99.90;;;;;;5055244;28;20201;-69
2022/09/20 06:19:10;;;;;;;7.93;6.30;;;10.60;99.90;;;;;;5050125;28;20201;-69
2022/09/20 06:21:45;;;;;;;7.57;6.13;;;10.70;99.90;;;;;;5048689;28;20749;-69
2022/09/20 06:24:25;;;;;;;9.67;6.70;;;10.70;99.90;;;;;;5045719;28;20205;-70
2022/09/20 06:26:55;;;;;;;6.83;5.83;;;10.70;99.90;;;;;;5036917;28;20693;-70
2022/09/20 06:29:29;;;;;;;9.57;7.20;;;10.70;99.90;;;;;;5051458;28;20280;-69
2022/09/20 06:31:56;;;;;;;9.40;7.07;;;10.70;99.90;;;;;;5051001;28;20224;-70
2022/09/20 06:34:25;;;;;;;10.33;8.10;;;10.70;99.90;;;;;;5050261;28;20202;-69
2022/09/20 06:42:43;;;;;;;9.20;7.60;;;10.80;99.90;;;;;;5045269;28;20343;-69
2022/09/20 06:45:10;;;;;;;10.13;7.93;;;10.80;99.90;;;;;;5040120;28;20260;-69
2022/09/20 06:47:37;;;;;;;12.80;8.40;;;10.80;99.90;;;;;;5036207;28;20233;-69
2022/09/20 06:50:06;;;;;;;11.90;8.33;;;10.80;99.90;;;;;;5060386;28;20254;-69
2022/09/20 06:52:34;;;;;;;13.80;9.73;;;10.80;99.90;;;;;;5049634;28;20210;-70
2022/09/20 06:55:06;;;;;;;9.63;8.30;;;10.90;99.90;;;;;;5044577;28;20701;-68
2022/09/20 06:57:36;;;;;;;9.97;7.97;;;10.90;99.90;;;;;;5041309;28;20194;-68
2022/09/20 07:00:05;;;;;;;10.23;8.50;;;10.90;99.90;;;;;;5047793;28;20303;-68
2022/09/20 07:02:31;;;;;;;10.70;8.23;;;11.00;99.90;;;;;;5046990;28;20749;-69
2022/09/20 07:04:58;;;;;;;10.13;8.47;;;11.00;99.90;;;;;;5036009;28;20647;-69
2022/09/20 07:07:26;;;;;;;9.80;8.37;;;11.10;99.90;;;;;;5047857;28;20240;-67
2022/09/20 07:09:53;;;;;;;9.00;7.60;;;11.10;99.90;;;;;;5064439;28;20202;-67
2022/09/20 07:12:20;;;;;;;12.13;8.30;;;11.10;99.90;;;;;;5047676;28;20328;-67
2022/09/20 07:14:47;;;;;;;11.53;8.47;;;11.10;99.90;;;;;;5045063;28;20214;-70
2022/09/20 07:17:13;;;;;;;10.50;7.77;;;11.10;99.90;;;;;;5049076;28;20204;-68
2022/09/20 07:19:40;;;;;;;11.10;8.83;;;11.10;99.90;;;;;;5050797;28;20655;-68
2022/09/20 07:22:07;;;;;;;9.77;8.33;;;11.10;99.90;;;;;;5048769;28;20308;-68
2022/09/20 07:24:35;;;;;;;10.73;8.80;;;11.20;99.90;;;;;;5045750;28;20675;-68
2022/09/20 07:27:04;;;;;;;11.00;8.00;;;11.20;99.90;;;;;;5050333;28;20226;-67
2022/09/20 07:29:31;;;;;;;8.90;7.73;;;11.20;99.90;;;;;;5048085;28;20205;-67
2022/09/20 07:31:58;;;;;;;11.20;7.93;;;11.20;99.90;;;;;;5050476;28;20206;-68
2022/09/20 07:34:26;;;;;;;12.20;7.60;;;11.20;99.90;;;;;;5062736;28;20202;-67
2022/09/20 07:36:52;;;;;;;11.10;8.27;;;11.20;99.90;;;;;;5049445;28;20237;-67
2022/09/20 07:39:19;;;;;;;13.13;8.43;;;11.20;99.90;;;;;;5063760;28;20216;-68
2022/09/20 07:41:49;;;;;;;9.23;8.17;;;11.30;99.90;;;;;;5049648;28;20218;-68
2022/09/20 07:44:24;;;;;;;8.23;7.43;;;11.30;99.90;;;;;;5048386;28;20704;-67
2022/09/20 07:46:51;;;;;;;8.93;7.50;;;11.30;99.90;;;;;;5060217;28;20259;-68
2022/09/20 07:49:20;;;;;;;10.10;7.83;;;11.30;99.90;;;;;;5050491;28;20663;-68
2022/09/20 07:51:46;;;;;;;10.13;8.43;;;11.40;99.90;;;;;;5051347;28;20212;-67
2022/09/20 07:54:13;;;;;;;9.83;7.30;;;11.40;99.90;;;;;;5042918;28;20309;-67
2022/09/20 07:56:40;;;;;;;7.17;6.43;;;11.50;99.90;;;;;;5054502;28;20205;-67
2022/09/20 07:59:09;;;;;;;10.23;7.43;;;11.50;99.90;;;;;;5046036;28;20205;-68
2022/09/20 08:01:36;;;;;;;9.27;7.50;;;11.60;99.90;;;;;;5039707;28;20819;-69
2022/09/20 08:04:04;;;;;;;7.90;6.87;;;11.80;99.90;;;;;;5052833;28;20221;-69
2022/09/20 08:06:32;;;;;;;10.83;7.33;;;11.80;99.90;;;;;;5052546;28;20233;-68
2022/09/20 08:08:59;;;;;;;7.50;6.80;;;11.90;99.90;;;;;;5064329;28;20220;-68
2022/09/20 08:11:28;;;;;;;10.03;7.83;;;12.00;99.90;;;;;;5055700;28;20206;-69
2022/09/20 08:13:56;;;;;;;10.73;7.20;;;12.10;99.90;;;;;;5051245;28;20702;-69
2022/09/20 08:16:24;;;;;;;9.97;7.30;;;12.20;99.90;;;;;;5052054;28;20713;-67
2022/09/20 08:18:55;;;;;;;8.40;6.47;;;12.30;99.90;;;;;;5052664;28;20651;-71
2022/09/20 08:21:23;;;;;;;9.97;6.77;;;12.50;99.90;;;;;;5051118;28;20229;-69
2022/09/20 08:23:51;;;;;;;9.57;6.47;;;12.50;99.90;;;;;;5049710;28;20232;-68
2022/09/20 08:26:19;;;;;;;8.00;7.20;;;12.60;99.90;;;;;;5051062;28;20726;-68
2022/09/20 08:28:48;;;;;;;7.93;6.83;;;12.60;99.90;;;;;;5038492;28;20202;-69
2022/09/20 08:31:18;;;;;;;9.63;8.17;;;12.60;99.90;;;;;;5051336;28;20205;-68
2022/09/20 08:33:48;;;;;;;11.50;8.20;;;12.60;99.90;;;;;;5067674;28;20247;-69
2022/09/20 08:36:16;;;;;;;8.40;6.90;;;12.60;99.90;;;;;;5064493;28;20236;-69
2022/09/20 08:38:43;;;;;;;9.93;6.67;;;12.60;99.90;;;;;;5050111;28;20210;-69
2022/09/20 08:41:14;;;;;;;8.37;7.23;;;12.60;99.90;;;;;;5038353;28;20206;-69
2022/09/20 08:43:45;;;;;;;8.43;7.17;;;12.70;99.90;;;;;;5052277;28;20521;-68
2022/09/20 08:46:15;;;;;;;8.13;6.83;;;12.60;99.90;;;;;;5046632;28;20359;-68
2022/09/20 08:48:42;;;;;;;8.70;7.47;;;12.70;99.90;;;;;;5058527;28;20674;-68
2022/09/20 08:51:14;;;;;;;9.07;7.37;;;12.70;99.90;;;;;;5055529;28;20201;-70
2022/09/20 08:53:46;;;;;;;9.00;7.70;;;12.70;99.90;;;;;;5044381;28;20297;-68
2022/09/20 08:56:13;;;;;;;11.03;6.70;;;12.70;99.90;;;;;;5052142;28;20202;-68
2022/09/20 08:58:40;;;;;;;8.43;7.43;;;12.70;99.90;;;;;;5052191;28;20562;-68
2022/09/20 09:01:10;;;;;;;10.53;7.10;;;12.60;99.90;;;;;;5054230;28;20765;-69
2022/09/20 09:03:37;;;;;;;7.70;6.73;;;12.70;99.90;;;;;;5063219;28;20208;-69
2022/09/20 09:06:04;;;;;;;8.43;6.27;;;12.60;99.90;;;;;;5057143;28;20213;-68
2022/09/20 09:08:35;;;;;;;7.83;6.60;;;12.60;99.90;;;;;;5052519;28;20209;-68
2022/09/20 09:11:07;;;;;;;10.43;7.37;;;12.50;99.90;;;;;;5051023;28;20202;-68
2022/09/20 09:13:42;;;;;;;8.60;7.23;;;12.50;99.90;;;;;;5052260;28;20206;-69
2022/09/20 09:16:13;;;;;;;8.50;7.60;;;12.50;99.90;;;;;;5053974;28;20206;-69
2022/09/20 09:18:42;;;;;;;9.10;7.43;;;12.50;99.90;;;;;;5037049;28;20201;-71
2022/09/20 09:21:16;;;;;;;10.13;8.50;;;12.50;99.90;;;;;;5040164;28;20209;-70
2022/09/20 09:23:51;;;;;;;9.03;8.13;;;12.50;99.90;;;;;;5044526;28;20271;-69
2022/09/20 09:26:20;;;;;;;9.10;8.20;;;12.50;99.90;;;;;;5045220;28;20194;-69
2022/09/20 09:28:47;;;;;;;9.17;8.27;;;12.60;99.90;;;;;;5045494;28;20931;-70
2022/09/20 09:31:24;;;;;;;11.47;7.90;;;12.60;99.90;;;;;;5047733;28;20206;-70
2022/09/20 09:33:51;;;;;;;10.33;8.23;;;12.60;99.90;;;;;;5044129;28;20964;-71
2022/09/20 09:36:24;;;;;;;10.90;9.20;;;12.60;99.90;;;;;;5043462;28;20261;-71
2022/09/20 09:39:22;;;;;;;8.77;7.87;;;12.60;99.90;;;;;;5037848;28;20290;-71
2022/09/20 09:41:49;;;;;;;9.10;8.07;;;12.60;99.90;;;;;;5040857;28;20201;-69
2022/09/20 09:44:22;;;;;;;7.77;6.87;;;12.60;99.90;;;;;;5046925;28;20242;-69
2022/09/20 09:46:50;;;;;;;8.27;7.37;;;12.70;99.90;;;;;;5057397;28;20660;-68
2022/09/20 09:49:18;;;;;;;10.37;7.97;;;12.70;99.90;;;;;;5046579;28;20216;-69
2022/09/20 09:52:11;;;;;;;10.00;8.10;;;12.80;99.90;;;;;;5071128;28;20285;-69
2022/09/20 09:54:43;;;;;;;12.27;8.13;;;12.90;99.90;;;;;;5066270;28;20202;-69
2022/09/20 09:57:32;;;;;;;10.80;7.90;;;12.90;99.90;;;;;;5048545;28;20198;-68
2022/09/20 10:00:10;;;;;;;8.73;7.83;;;13.00;99.90;;;;;;5043596;28;20579;-69
2022/09/20 10:03:00;;;;;;;11.93;8.07;;;13.10;99.90;;;;;;5043074;28;20323;-68
2022/09/20 10:05:32;;;;;;;9.93;7.87;;;13.10;99.90;;;;;;5040336;28;20233;-69
2022/09/20 10:08:14;;;;;;;8.13;7.33;;;13.20;99.90;;;;;;5050938;28;20693;-71
2022/09/20 10:10:57;;;;;;;9.10;8.20;;;13.30;99.90;;;;;;5045896;28;20197;-69
2022/09/20 10:13:31;;;;;;;11.20;8.10;;;13.30;99.90;;;;;;5044765;28;20216;-71
2022/09/20 10:16:09;;;;;;;9.07;8.23;;;13.40;99.90;;;;;;5054260;28;20563;-70
2022/09/20 10:18:47;;;;;;;8.43;7.20;;;13.50;99.90;;;;;;5043616;28;20196;-72
2022/09/20 10:21:32;;;;;;;7.30;6.53;;;13.80;99.90;;;;;;5049443;28;20260;-71
2022/09/20 10:24:08;;;;;;;7.33;6.60;;;14.30;99.90;;;;;;5051748;28;20228;-70
2022/09/20 10:26:55;;;;;;;7.33;6.63;;;15.20;99.90;;;;;;5056249;28;20648;-70
2022/09/20 10:29:32;;;;;;;6.53;5.90;;;16.50;99.90;;;;;;5045028;28;20209;-70
2022/09/20 10:32:15;;;;;;;6.10;5.50;;;17.90;99.90;;;;;;5043719;28;20203;-71
2022/09/20 10:35:16;;;;;;;5.70;5.15;;;18.70;99.90;;;;;;5046022;28;20205;-70
2022/09/20 10:37:56;;;;;;;5.63;5.10;;;19.10;99.90;;;;;;5030566;28;20261;-69
2022/09/20 10:43:13;;;;;;;9.15;6.97;;;19.70;99.90;;;;;;5042460;28;20199;-70
2022/09/20 10:43:29;;;;;;;5.25;4.68;;;20.70;99.90;;;;;;5035611;28;20297;-71
2022/09/20 10:46:13;;;;;;;5.07;4.68;;;21.20;99.90;;;;;;5039146;28;20213;-71
2022/09/20 10:48:46;;;;;;;4.82;4.53;;;21.50;99.90;;;;;;5033834;28;20202;-70
2022/09/20 10:51:24;;;;;;;4.13;3.80;;;22.80;99.90;;;;;;5032979;28;20686;-70
2022/09/20 10:54:01;;;;;;;5.03;4.10;;;24.40;99.90;;;;;;5039560;28;20220;-71
2022/09/20 10:56:33;;;;;;;5.53;4.22;;;25.00;98.80;;;;;;5045185;28;20301;-71
2022/09/20 10:59:19;;;;;;;4.60;4.20;;;25.60;93.70;;;;;;5047304;28;20218;-70
2022/09/20 11:01:59;;;;;;;4.85;4.28;;;25.30;92.90;;;;;;5045788;28;20256;-70
2022/09/20 11:04:58;;;;;;;4.28;3.90;;;25.00;91.00;;;;;;5044996;28;20210;-69
2022/09/20 11:07:37;;;;;;;5.13;3.50;;;24.60;90.70;;;;;;5047423;28;20214;-69
2022/09/20 11:10:13;;;;;;;4.90;4.45;;;24.00;91.30;;;;;;5045872;28;20198;-68
2022/09/20 11:12:44;;;;;;;4.07;3.72;;;23.90;90.30;;;;;;5042378;28;20244;-68
2022/09/20 11:15:19;;;;;;;4.20;3.80;;;23.40;90.00;;;;;;5054399;28;20201;-69
2022/09/20 11:17:55;;;;;;;4.15;3.45;;;24.10;94.70;;;;;;5052918;28;20199;-70
2022/09/20 11:20:26;;;;;;;3.95;3.50;;;25.30;91.00;;;;;;5036844;28;20294;-69
2022/09/20 11:22:59;;;;;;;3.55;3.30;;;25.30;82.00;;;;;;5056353;28;20232;-70
2022/09/20 11:25:36;;;;;;;8.88;4.10;;;25.10;83.40;;;;;;5048140;28;20763;-68
2022/09/20 11:28:11;;;;;;;7.10;3.15;;;24.70;83.50;;;;;;5047130;28;20259;-68
2022/09/20 11:30:44;;;;;;;4.45;3.38;;;24.80;89.70;;;;;;5051993;28;20290;-69
2022/09/20 11:33:19;;;;;;;3.35;3.05;;;25.70;83.40;;;;;;5055558;28;20224;-73
2022/09/20 11:35:49;;;;;;;3.40;3.10;;;26.40;80.80;;;;;;5064337;28;20215;-73
2022/09/20 11:38:22;;;;;;;3.95;3.42;;;26.60;76.50;;;;;;5050197;28;20452;-72
2022/09/20 11:40:56;;;;;;;3.03;2.83;;;26.40;75.40;;;;;;5052471;28;20212;-73
2022/09/20 11:43:24;;;;;;;4.55;3.03;;;26.00;74.40;;;;;;5052363;28;20228;-72
2022/09/20 11:45:58;;;;;;;3.53;2.92;;;25.90;76.70;;;;;;5059766;28;20202;-70
2022/09/20 11:48:29;;;;;;;3.90;3.10;;;26.30;76.50;;;;;;5056037;28;20229;-73
2022/09/20 11:51:27;;;;;;;3.78;3.25;;;26.80;73.70;;;;;;5050665;28;20475;-74
2022/09/20 11:54:18;;;;;;;3.45;3.15;;;27.20;73.00;;;;;;5057155;28;20219;-76
2022/09/20 11:56:50;;;;;;;3.33;3.05;;;27.40;70.20;;;;;;5057099;28;20206;-74
2022/09/20 11:59:29;;;;;;;4.32;3.03;;;26.90;68.80;;;;;;5050564;28;20677;-73
2022/09/20 12:02:00;;;;;;;3.30;2.90;;;26.10;69.90;;;;;;5048408;28;20201;-72
2022/09/20 12:04:30;;;;;;;3.10;2.83;;;25.00;72.20;;;;;;5046870;28;20202;-73
2022/09/20 12:07:00;;;;;;;3.13;2.70;;;24.00;73.70;;;;;;5045652;28;20214;-73
2022/09/20 12:09:31;;;;;;;3.05;2.72;;;23.20;75.00;;;;;;5047382;28;20210;-74
2022/09/20 12:11:59;;;;;;;2.97;2.60;;;22.50;76.90;;;;;;5066359;28;20209;-73
2022/09/20 12:14:30;;;;;;;3.15;2.60;;;21.90;78.60;;;;;;5057435;28;20209;-74
2022/09/20 12:16:59;;;;;;;3.70;3.13;;;21.40;80.40;;;;;;5045713;28;20205;-73
2022/09/20 12:19:38;;;;;;;3.40;3.10;;;21.00;82.20;;;;;;5048906;28;20212;-73
2022/09/20 12:22:28;;;;;;;3.00;2.70;;;20.80;84.30;;;;;;5054527;28;20637;-73
2022/09/20 12:25:33;;;;;;;3.40;3.10;;;21.10;85.20;;;;;;5036111;28;20516;-71
2022/09/20 12:27:59;;;;;;;4.03;3.25;;;21.50;83.90;;;;;;5031786;28;20609;-74
2022/09/20 12:30:28;;;;;;;3.60;3.03;;;21.50;83.00;;;;;;5050490;28;20206;-73
2022/09/20 12:33:01;;;;;;;3.00;2.80;;;21.00;83.10;;;;;;5051147;28;20574;-73
2022/09/20 12:35:59;;;;;;;5.70;2.83;;;20.50;83.80;;;;;;5044580;28;20211;-74
2022/09/20 12:38:36;;;;;;;3.25;2.83;;;20.10;87.00;;;;;;5043661;28;20264;-75
2022/09/20 12:41:10;;;;;;;3.13;2.78;;;20.10;88.40;;;;;;5044074;28;20669;-71
2022/09/20 12:43:47;;;;;;;3.30;3.03;;;20.80;90.20;;;;;;5060530;28;20229;-71
2022/09/20 12:46:23;;;;;;;3.15;2.95;;;21.80;89.20;;;;;;5062120;28;20559;-72
2022/09/20 12:48:51;;;;;;;4.38;2.72;;;22.60;84.70;;;;;;5056636;28;20218;-72
2022/09/20 12:54:17;;;;;;;2.53;2.28;;;23.10;80.00;;;;;;5043924;28;20763;-70
2022/09/20 12:56:45;;;;;;;3.92;2.15;;;23.40;78.10;;;;;;5053777;28;20213;-71
2022/09/20 12:59:23;;;;;;;1.92;1.83;;;23.70;76.20;;;;;;5046309;28;20561;-72
2022/09/20 13:01:51;;;;;;;2.40;2.20;;;23.50;73.70;;;;;;5047841;28;20202;-71
2022/09/20 13:04:55;;;;;;;2.13;1.80;;;23.30;73.80;;;;;;5054371;28;20663;-72
2022/09/20 13:07:53;;;;;;;2.00;1.90;;;23.30;74.30;;;;;;5046659;28;20411;-73
2022/09/20 13:10:25;;;;;;;2.67;2.28;;;23.10;74.40;;;;;;5047854;28;20301;-74
2022/09/20 13:12:56;;;;;;;2.80;2.47;;;22.90;74.20;;;;;;5049474;28;20194;-72
2022/09/20 13:15:23;;;;;;;2.70;2.10;;;22.60;74.50;;;;;;5044755;28;20253;-74
2022/09/20 13:17:52;;;;;;;2.50;2.30;;;22.10;74.40;;;;;;5043389;28;20217;-74
2022/09/20 13:20:23;;;;;;;2.10;2.00;;;21.70;75.50;;;;;;5057794;28;20650;-72
2022/09/20 13:22:52;;;;;;;2.20;2.00;;;21.30;76.30;;;;;;5059359;28;20227;-72
2022/09/20 13:25:22;;;;;;;2.03;1.88;;;20.70;77.60;;;;;;5053568;28;20252;-73
2022/09/20 13:27:55;;;;;;;2.33;1.40;;;20.30;79.20;;;;;;5049869;28;20605;-72
2022/09/20 13:30:25;;;;;;;1.90;1.80;;;19.70;80.50;;;;;;5062900;28;20629;-73
2022/09/20 13:32:53;;;;;;;3.03;2.10;;;19.20;82.80;;;;;;5063118;28;20585;-73
2022/09/20 13:35:22;;;;;;;2.00;1.80;;;18.80;85.70;;;;;;5060793;28;20206;-73
2022/09/20 13:37:55;;;;;;;2.45;2.28;;;18.50;88.20;;;;;;5056230;28;20393;-73
2022/09/20 13:40:32;;;;;;;2.58;2.30;;;18.20;90.30;;;;;;5065494;28;20236;-72